sensor_id;sensor_type;location;lat;lon;timestamp;pressure;altitude;pressure_sealevel;temperature;humidity
44079;BME280;29744;49.078;12.878;2022-11-15T00:00:29;96442.84;;;15.70;41.95
44079;BME280;29744;49.078;12.878;2022-11-15T00:05:29;96436.66;;;15.70;41.84
44079;BME280;29744;49.078;12.878;2022-11-15T00:10:34;96426.16;;;15.68;42.00
44079;BME280;29744;49.078;12.878;2022-11-15T00:15:40;96418.72;;;15.65;41.69
44079;BME280;29744;49.078;12.878;2022-11-15T00:20:41;96427.63;;;15.66;41.96
44079;BME280;29744;49.078;12.878;2022-11-15T00:25:41;96422.53;;;15.64;41.60
44079;BME280;29744;49.078;12.878;2022-11-15T00:30:42;96429.06;;;15.63;42.30
44079;BME280;29744;49.078;12.878;2022-11-15T00:35:42;96420.97;;;15.63;41.96
44079;BME280;29744;49.078;12.878;2022-11-15T00:40:42;96416.69;;;15.62;41.81
44079;BME280;29744;49.078;12.878;2022-11-15T00:45:42;96400.78;;;15.61;41.67
44079;BME280;29744;49.078;12.878;2022-11-15T00:50:43;96399.66;;;15.62;42.17
44079;BME280;29744;49.078;12.878;2022-11-15T00:55:43;96394.59;;;15.60;42.08
44079;BME280;29744;49.078;12.878;2022-11-15T01:00:43;96403.03;;;15.59;41.90
44079;BME280;29744;49.078;12.878;2022-11-15T01:05:44;96400.34;;;15.59;41.95
44079;BME280;29744;49.078;12.878;2022-11-15T01:10:44;96394.13;;;15.58;42.39
44079;BME280;29744;49.078;12.878;2022-11-15T01:15:44;96386.34;;;15.57;41.79
44079;BME280;29744;49.078;12.878;2022-11-15T01:20:45;96377.47;;;15.56;41.66
44079;BME280;29744;49.078;12.878;2022-11-15T01:25:45;96370.47;;;15.55;42.06
44079;BME280;29744;49.078;12.878;2022-11-15T01:30:45;96385.09;;;15.54;42.32
44079;BME280;29744;49.078;12.878;2022-11-15T01:35:46;96368.09;;;15.54;42.26
44079;BME280;29744;49.078;12.878;2022-11-15T01:40:47;96372.72;;;15.53;41.81
44079;BME280;29744;49.078;12.878;2022-11-15T01:45:58;96371.13;;;15.52;42.03
44079;BME280;29744;49.078;12.878;2022-11-15T01:51:03;96356.81;;;15.52;42.01
44079;BME280;29744;49.078;12.878;2022-11-15T01:56:08;96360.66;;;15.51;41.94
44079;BME280;29744;49.078;12.878;2022-11-15T02:01:10;96356.38;;;15.50;42.24
44079;BME280;29744;49.078;12.878;2022-11-15T02:06:10;96350.16;;;15.49;42.16
44079;BME280;29744;49.078;12.878;2022-11-15T02:11:11;96350.50;;;15.48;41.76
44079;BME280;29744;49.078;12.878;2022-11-15T02:16:32;96347.34;;;15.45;42.05
44079;BME280;29744;49.078;12.878;2022-11-15T02:27:45;96332.13;;;15.41;42.22
44079;BME280;29744;49.078;12.878;2022-11-15T02:32:46;96332.13;;;15.41;42.02
44079;BME280;29744;49.078;12.878;2022-11-15T02:42:57;96320.84;;;15.39;41.87
44079;BME280;29744;49.078;12.878;2022-11-15T02:48:18;96315.00;;;15.37;42.28
44079;BME280;29744;49.078;12.878;2022-11-15T02:53:27;96316.13;;;15.36;42.08
44079;BME280;29744;49.078;12.878;2022-11-15T03:13:58;96303.28;;;15.33;42.11
44079;BME280;29744;49.078;12.878;2022-11-15T03:19:07;96302.47;;;15.32;41.86
44079;BME280;29744;49.078;12.878;2022-11-15T03:24:08;96288.19;;;15.32;41.84
44079;BME280;29744;49.078;12.878;2022-11-15T03:29:12;96298.19;;;15.31;42.51
44079;BME280;29744;49.078;12.878;2022-11-15T03:34:38;96297.75;;;15.29;41.99
44079;BME280;29744;49.078;12.878;2022-11-15T03:39:41;96289.97;;;15.28;42.02
44079;BME280;29744;49.078;12.878;2022-11-15T03:50:10;96280.59;;;15.25;41.82
44079;BME280;29744;49.078;12.878;2022-11-15T03:55:15;96275.22;;;15.25;41.94
44079;BME280;29744;49.078;12.878;2022-11-15T04:00:16;96273.63;;;15.24;42.34
44079;BME280;29744;49.078;12.878;2022-11-15T04:05:17;96273.63;;;15.24;42.18
44079;BME280;29744;49.078;12.878;2022-11-15T04:10:18;96269.34;;;15.23;41.85
44079;BME280;29744;49.078;12.878;2022-11-15T04:15:23;96264.72;;;15.24;42.08
44079;BME280;29744;49.078;12.878;2022-11-15T04:20:28;96252.34;;;15.23;42.32
44079;BME280;29744;49.078;12.878;2022-11-15T04:25:49;96251.88;;;15.21;42.18
44079;BME280;29744;49.078;12.878;2022-11-15T04:30:50;96249.19;;;15.21;42.37
44079;BME280;29744;49.078;12.878;2022-11-15T04:35:51;96244.13;;;15.19;42.37
44079;BME280;29744;49.078;12.878;2022-11-15T04:41:10;96247.94;;;15.18;41.80
44079;BME280;29744;49.078;12.878;2022-11-15T04:46:10;96243.00;;;15.20;41.93
44079;BME280;29744;49.078;12.878;2022-11-15T04:51:10;96247.28;;;15.21;42.10
44079;BME280;29744;49.078;12.878;2022-11-15T04:56:11;96236.94;;;15.23;42.23
44079;BME280;29744;49.078;12.878;2022-11-15T05:01:13;96240.88;;;15.26;41.81
44079;BME280;29744;49.078;12.878;2022-11-15T05:06:14;96242.91;;;15.29;41.83
44079;BME280;29744;49.078;12.878;2022-11-15T05:11:14;96227.94;;;15.31;41.96
44079;BME280;29744;49.078;12.878;2022-11-15T05:16:15;96232.34;;;15.36;42.07
44079;BME280;29744;49.078;12.878;2022-11-15T05:21:15;96224.38;;;15.39;42.13
44079;BME280;29744;49.078;12.878;2022-11-15T05:26:17;96217.16;;;15.43;42.28
44079;BME280;29744;49.078;12.878;2022-11-15T05:31:18;96209.19;;;15.47;42.29
44079;BME280;29744;49.078;12.878;2022-11-15T05:41:46;96206.06;;;15.57;42.33
44079;BME280;29744;49.078;12.878;2022-11-15T05:46:50;96205.50;;;15.64;42.46
44079;BME280;29744;49.078;12.878;2022-11-15T05:51:53;96202.13;;;15.67;42.49
44079;BME280;29744;49.078;12.878;2022-11-15T05:56:54;96202.25;;;15.70;42.27
44079;BME280;29744;49.078;12.878;2022-11-15T06:01:56;96203.94;;;15.75;42.69
44079;BME280;29744;49.078;12.878;2022-11-15T06:06:58;96194.84;;;15.80;42.31
44079;BME280;29744;49.078;12.878;2022-11-15T06:11:58;96202.63;;;15.81;42.50
44079;BME280;29744;49.078;12.878;2022-11-15T06:16:59;96201.59;;;15.86;42.76
44079;BME280;29744;49.078;12.878;2022-11-15T06:21:59;96208.25;;;15.88;42.28
44079;BME280;29744;49.078;12.878;2022-11-15T06:26:59;96201.72;;;15.89;42.00
44079;BME280;29744;49.078;12.878;2022-11-15T06:32:03;96205.31;;;15.93;42.52
44079;BME280;29744;49.078;12.878;2022-11-15T06:37:03;96208.03;;;15.93;42.31
44079;BME280;29744;49.078;12.878;2022-11-15T06:42:03;96206.56;;;15.96;42.52
44079;BME280;29744;49.078;12.878;2022-11-15T06:47:04;96210.84;;;15.97;42.42
44079;BME280;29744;49.078;12.878;2022-11-15T06:52:04;96203.53;;;15.97;42.59
44079;BME280;29744;49.078;12.878;2022-11-15T06:57:04;96206.69;;;15.99;42.00
44079;BME280;29744;49.078;12.878;2022-11-15T07:02:05;96206.69;;;15.99;42.20
44079;BME280;29744;49.078;12.878;2022-11-15T07:07:06;96205.56;;;16.00;42.15
44079;BME280;29744;49.078;12.878;2022-11-15T07:12:06;96203.63;;;16.01;42.10
44079;BME280;29744;49.078;12.878;2022-11-15T07:17:06;96200.13;;;16.00;41.82
44079;BME280;29744;49.078;12.878;2022-11-15T07:22:07;96204.44;;;16.01;42.22
44079;BME280;29744;49.078;12.878;2022-11-15T07:27:07;96202.84;;;16.00;42.20
44079;BME280;29744;49.078;12.878;2022-11-15T07:32:07;96199.81;;;16.02;42.12
44079;BME280;29744;49.078;12.878;2022-11-15T07:37:08;96201.72;;;16.01;41.74
44079;BME280;29744;49.078;12.878;2022-11-15T07:42:09;96203.63;;;16.01;42.06
44079;BME280;29744;49.078;12.878;2022-11-15T07:47:28;96205.56;;;16.00;41.62
44079;BME280;29744;49.078;12.878;2022-11-15T07:52:29;96198.22;;;16.01;42.10
44079;BME280;29744;49.078;12.878;2022-11-15T07:57:29;96192.03;;;16.00;41.83
44079;BME280;29744;49.078;12.878;2022-11-15T08:02:30;96185.81;;;16.00;41.77
44079;BME280;29744;49.078;12.878;2022-11-15T08:07:31;96195.84;;;15.99;41.60
44079;BME280;29744;49.078;12.878;2022-11-15T08:12:31;96183.13;;;16.00;42.21
44079;BME280;29744;49.078;12.878;2022-11-15T08:17:32;96185.03;;;15.99;41.64
44079;BME280;29744;49.078;12.878;2022-11-15T08:22:33;96182.69;;;15.98;41.58
44079;BME280;29744;49.078;12.878;2022-11-15T08:27:34;96177.25;;;15.98;41.79
44079;BME280;29744;49.078;12.878;2022-11-15T08:32:34;96171.84;;;15.98;41.50
44079;BME280;29744;49.078;12.878;2022-11-15T08:37:35;96166.00;;;15.96;41.78
44079;BME280;29744;49.078;12.878;2022-11-15T08:42:35;96159.78;;;15.95;41.75
44079;BME280;29744;49.078;12.878;2022-11-15T08:47:36;96155.50;;;15.94;41.87
44079;BME280;29744;49.078;12.878;2022-11-15T08:52:36;96152.81;;;15.94;42.06
44079;BME280;29744;49.078;12.878;2022-11-15T08:57:36;96148.09;;;15.91;41.54
44079;BME280;29744;49.078;12.878;2022-11-15T09:02:38;96143.81;;;15.90;41.47
44079;BME280;29744;49.078;12.878;2022-11-15T09:07:38;96144.13;;;15.89;42.02
44079;BME280;29744;49.078;12.878;2022-11-15T09:12:39;96136.38;;;15.87;41.90
44079;BME280;29744;49.078;12.878;2022-11-15T09:17:39;96126.69;;;15.86;41.87
44079;BME280;29744;49.078;12.878;2022-11-15T09:22:39;96130.50;;;15.85;41.89
44079;BME280;29744;49.078;12.878;2022-11-15T09:27:39;96130.84;;;15.84;42.09
44079;BME280;29744;49.078;12.878;2022-11-15T09:32:40;96134.69;;;15.83;41.59
44079;BME280;29744;49.078;12.878;2022-11-15T09:37:40;96124.19;;;15.81;41.85
44079;BME280;29744;49.078;12.878;2022-11-15T09:53:26;96091.16;;;15.75;41.74
44079;BME280;29744;49.078;12.878;2022-11-15T10:03:46;96078.34;;;15.72;41.74
44079;BME280;29744;49.078;12.878;2022-11-15T10:09:04;96069.09;;;15.73;41.71
44079;BME280;29744;49.078;12.878;2022-11-15T10:14:26;96063.91;;;15.68;41.78
44079;BME280;29744;49.078;12.878;2022-11-15T10:24:41;96049.16;;;15.66;41.94
44079;BME280;29744;49.078;12.878;2022-11-15T10:29:44;96032.59;;;15.67;41.72
44079;BME280;29744;49.078;12.878;2022-11-15T10:34:46;96017.50;;;15.66;41.82
44079;BME280;29744;49.078;12.878;2022-11-15T10:40:03;96007.03;;;15.65;41.92
44079;BME280;29744;49.078;12.878;2022-11-15T10:45:23;95992.28;;;15.62;42.02
44079;BME280;29744;49.078;12.878;2022-11-15T10:50:31;95988.47;;;15.63;41.88
44079;BME280;29744;49.078;12.878;2022-11-15T10:55:33;95978.44;;;15.64;42.03
44079;BME280;29744;49.078;12.878;2022-11-15T11:00:37;95958.72;;;15.63;42.00
44079;BME280;29744;49.078;12.878;2022-11-15T11:05:41;95955.25;;;15.63;42.07
44079;BME280;29744;49.078;12.878;2022-11-15T11:10:59;95942.41;;;15.60;42.23
44079;BME280;29744;49.078;12.878;2022-11-15T11:16:09;95933.16;;;15.61;41.69
44079;BME280;29744;49.078;12.878;2022-11-15T11:21:46;95913.81;;;15.59;42.04
44079;BME280;29744;49.078;12.878;2022-11-15T11:32:27;95907.97;;;15.57;41.84
44079;BME280;29744;49.078;12.878;2022-11-15T11:37:50;95895.56;;;15.56;41.84
44079;BME280;29744;49.078;12.878;2022-11-15T11:53:15;95868.88;;;15.54;42.18
44079;BME280;29744;49.078;12.878;2022-11-15T11:58:20;95857.28;;;15.54;41.87
44079;BME280;29744;49.078;12.878;2022-11-15T12:08:43;95840.63;;;15.52;42.15
44079;BME280;29744;49.078;12.878;2022-11-15T12:13:49;95831.41;;;15.53;41.93
44079;BME280;29744;49.078;12.878;2022-11-15T12:18:54;95824.44;;;15.52;42.19
44079;BME280;29744;49.078;12.878;2022-11-15T12:24:00;95825.22;;;15.52;41.96
44079;BME280;29744;49.078;12.878;2022-11-15T12:29:06;95826.34;;;15.51;41.79
44079;BME280;29744;49.078;12.878;2022-11-15T12:39:20;95818.59;;;15.50;41.89
44079;BME280;29744;49.078;12.878;2022-11-15T12:59:55;95792.59;;;15.45;42.23
44079;BME280;29744;49.078;12.878;2022-11-15T13:20:21;95781.00;;;15.44;41.94
44079;BME280;29744;49.078;12.878;2022-11-15T13:30:53;95765.13;;;15.43;42.28
44079;BME280;29744;49.078;12.878;2022-11-15T13:35:56;95763.22;;;15.43;41.91
44079;BME280;29744;49.078;12.878;2022-11-15T13:40:58;95757.38;;;15.41;42.45
44079;BME280;29744;49.078;12.878;2022-11-15T13:46:21;95756.94;;;15.39;42.22
44079;BME280;29744;49.078;12.878;2022-11-15T13:56:27;95755.00;;;15.40;42.45
44079;BME280;29744;49.078;12.878;2022-11-15T14:01:31;95752.31;;;15.40;41.94
44079;BME280;29744;49.078;12.878;2022-11-15T14:06:31;95749.16;;;15.38;41.92
44079;BME280;29744;49.078;12.878;2022-11-15T14:11:32;95741.84;;;15.38;42.53
44079;BME280;29744;49.078;12.878;2022-11-15T14:16:37;95732.97;;;15.38;42.44
44079;BME280;29744;49.078;12.878;2022-11-15T14:22:14;95740.97;;;15.34;42.21
44079;BME280;29744;49.078;12.878;2022-11-15T14:27:27;95743.66;;;15.34;42.05
44079;BME280;29744;49.078;12.878;2022-11-15T14:32:30;95735.56;;;15.34;42.18
44079;BME280;29744;49.078;12.878;2022-11-15T14:37:37;95732.06;;;15.34;42.37
44079;BME280;29744;49.078;12.878;2022-11-15T14:42:37;95731.28;;;15.33;42.23
44079;BME280;29744;49.078;12.878;2022-11-15T14:47:37;95717.78;;;15.33;42.62
44079;BME280;29744;49.078;12.878;2022-11-15T14:52:38;95724.31;;;15.32;42.30
44079;BME280;29744;49.078;12.878;2022-11-15T14:57:38;95722.75;;;15.31;42.37
44079;BME280;29744;49.078;12.878;2022-11-15T15:02:39;95714.66;;;15.31;41.99
44079;BME280;29744;49.078;12.878;2022-11-15T15:07:40;95711.94;;;15.31;42.41
44079;BME280;29744;49.078;12.878;2022-11-15T15:12:41;95703.41;;;15.29;42.56
44079;BME280;29744;49.078;12.878;2022-11-15T15:17:42;95704.53;;;15.28;42.68
44079;BME280;29744;49.078;12.878;2022-11-15T15:22:44;95700.25;;;15.27;42.42
44079;BME280;29744;49.078;12.878;2022-11-15T15:27:44;95701.81;;;15.28;42.21
44079;BME280;29744;49.078;12.878;2022-11-15T15:32:45;95712.63;;;15.28;42.29
44079;BME280;29744;49.078;12.878;2022-11-15T15:37:46;95709.50;;;15.26;42.25
44079;BME280;29744;49.078;12.878;2022-11-15T15:42:47;95714.09;;;15.26;42.03
44079;BME280;29744;49.078;12.878;2022-11-15T15:47:48;95707.91;;;15.25;42.54
44079;BME280;29744;49.078;12.878;2022-11-15T15:52:51;95709.84;;;15.25;42.08
44079;BME280;29744;49.078;12.878;2022-11-15T15:57:52;95704.78;;;15.23;42.26
44079;BME280;29744;49.078;12.878;2022-11-15T16:02:53;95707.81;;;15.22;42.08
44079;BME280;29744;49.078;12.878;2022-11-15T16:07:53;95706.25;;;15.21;42.25
44079;BME280;29744;49.078;12.878;2022-11-15T16:12:55;95709.75;;;15.21;42.23
44079;BME280;29744;49.078;12.878;2022-11-15T16:17:58;95697.81;;;15.22;42.33
44079;BME280;29744;49.078;12.878;2022-11-15T16:22:59;95697.72;;;15.19;42.06
44079;BME280;29744;49.078;12.878;2022-11-15T16:28:00;95705.56;;;15.24;42.23
44079;BME280;29744;49.078;12.878;2022-11-15T16:33:00;95706.78;;;15.26;42.30
44079;BME280;29744;49.078;12.878;2022-11-15T16:38:00;95704.19;;;15.30;42.26
44079;BME280;29744;49.078;12.878;2022-11-15T16:43:00;95704.28;;;15.33;42.37
44079;BME280;29744;49.078;12.878;2022-11-15T16:48:02;95697.41;;;15.36;42.39
44079;BME280;29744;49.078;12.878;2022-11-15T16:53:03;95700.19;;;15.39;42.40
44079;BME280;29744;49.078;12.878;2022-11-15T16:58:03;95685.63;;;15.44;42.73
44079;BME280;29744;49.078;12.878;2022-11-15T17:03:03;95698.09;;;15.49;42.52
44079;BME280;29744;49.078;12.878;2022-11-15T17:08:03;95700.91;;;15.52;42.52
44079;BME280;29744;49.078;12.878;2022-11-15T17:13:04;95694.91;;;15.59;42.32
44079;BME280;29744;49.078;12.878;2022-11-15T17:18:05;95703.09;;;15.62;42.88
44079;BME280;29744;49.078;12.878;2022-11-15T17:23:05;95702.03;;;15.67;42.56
44079;BME280;29744;49.078;12.878;2022-11-15T17:28:11;95701.78;;;15.72;42.65
44079;BME280;29744;49.078;12.878;2022-11-15T17:33:11;95702.22;;;15.74;42.98
44079;BME280;29744;49.078;12.878;2022-11-15T17:38:11;95701.97;;;15.79;42.65
44079;BME280;29744;49.078;12.878;2022-11-15T17:43:13;95698.59;;;15.82;42.36
44079;BME280;29744;49.078;12.878;2022-11-15T17:48:13;95695.97;;;15.86;42.96
44079;BME280;29744;49.078;12.878;2022-11-15T17:53:14;95703.72;;;15.87;42.73
44079;BME280;29744;49.078;12.878;2022-11-15T17:58:14;95708.44;;;15.90;42.45
44079;BME280;29744;49.078;12.878;2022-11-15T18:03:17;95710.44;;;15.93;42.57
44079;BME280;29744;49.078;12.878;2022-11-15T18:08:17;95710.88;;;15.95;42.79
44079;BME280;29744;49.078;12.878;2022-11-15T18:13:18;95712.88;;;15.98;42.38
44079;BME280;29744;49.078;12.878;2022-11-15T18:18:18;95707.47;;;15.98;42.31
44079;BME280;29744;49.078;12.878;2022-11-15T18:23:18;95704.41;;;16.00;42.48
44079;BME280;29744;49.078;12.878;2022-11-15T18:28:18;95695.97;;;16.01;42.27
44079;BME280;29744;49.078;12.878;2022-11-15T18:33:19;95686.72;;;16.02;42.29
44079;BME280;29744;49.078;12.878;2022-11-15T18:38:19;95693.69;;;16.03;42.46
44079;BME280;29744;49.078;12.878;2022-11-15T18:43:19;95697.97;;;16.04;42.31
44079;BME280;29744;49.078;12.878;2022-11-15T18:48:20;95686.34;;;16.04;42.20
44079;BME280;29744;49.078;12.878;2022-11-15T18:53:20;95681.72;;;16.04;42.06
44079;BME280;29744;49.078;12.878;2022-11-15T18:58:20;95677.91;;;16.05;42.34
44079;BME280;29744;49.078;12.878;2022-11-15T19:03:21;95676.75;;;16.06;42.41
44079;BME280;29744;49.078;12.878;2022-11-15T19:08:21;95662.44;;;16.06;42.23
44079;BME280;29744;49.078;12.878;2022-11-15T19:13:22;95664.03;;;16.07;42.23
44079;BME280;29744;49.078;12.878;2022-11-15T19:18:22;95657.47;;;16.08;42.49
44079;BME280;29744;49.078;12.878;2022-11-15T19:23:23;95660.19;;;16.08;42.09
44079;BME280;29744;49.078;12.878;2022-11-15T19:28:24;95659.03;;;16.09;41.91
44079;BME280;29744;49.078;12.878;2022-11-15T19:33:25;95643.59;;;16.09;42.19
44079;BME280;29744;49.078;12.878;2022-11-15T19:38:25;95656.00;;;16.10;42.15
44079;BME280;29744;49.078;12.878;2022-11-15T19:43:26;95663.75;;;16.12;42.42
44079;BME280;29744;49.078;12.878;2022-11-15T19:48:28;95655.63;;;16.12;42.15
44079;BME280;29744;49.078;12.878;2022-11-15T19:53:30;95649.09;;;16.13;42.21
44079;BME280;29744;49.078;12.878;2022-11-15T19:58:31;95642.53;;;16.14;41.86
44079;BME280;29744;49.078;12.878;2022-11-15T20:03:34;95634.44;;;16.14;42.19
44079;BME280;29744;49.078;12.878;2022-11-15T20:08:35;95634.06;;;16.16;41.82
44079;BME280;29744;49.078;12.878;2022-11-15T20:13:35;95635.22;;;16.15;42.25
44079;BME280;29744;49.078;12.878;2022-11-15T20:18:35;95640.25;;;16.16;42.00
44079;BME280;29744;49.078;12.878;2022-11-15T20:23:36;95638.34;;;16.17;41.78
44079;BME280;29744;49.078;12.878;2022-11-15T20:28:37;95632.94;;;16.17;42.06
44079;BME280;29744;49.078;12.878;2022-11-15T20:33:38;95625.59;;;16.17;42.06
44079;BME280;29744;49.078;12.878;2022-11-15T20:38:39;95624.03;;;16.16;42.12
44079;BME280;29744;49.078;12.878;2022-11-15T20:43:40;95624.81;;;16.17;41.99
44079;BME280;29744;49.078;12.878;2022-11-15T20:48:42;95613.22;;;16.16;42.00
44079;BME280;29744;49.078;12.878;2022-11-15T20:53:44;95610.50;;;16.16;41.91
44079;BME280;29744;49.078;12.878;2022-11-15T20:58:45;95612.44;;;16.16;42.15
44079;BME280;29744;49.078;12.878;2022-11-15T21:03:46;95612.44;;;16.16;41.93
44079;BME280;29744;49.078;12.878;2022-11-15T21:08:48;95592.72;;;16.15;41.96
44079;BME280;29744;49.078;12.878;2022-11-15T21:14:07;95584.97;;;16.14;41.88
44079;BME280;29744;49.078;12.878;2022-11-15T21:19:08;95577.97;;;16.13;41.63
44079;BME280;29744;49.078;12.878;2022-11-15T21:24:09;95577.63;;;16.14;41.89
44079;BME280;29744;49.078;12.878;2022-11-15T21:29:10;95560.97;;;16.12;41.84
44079;BME280;29744;49.078;12.878;2022-11-15T21:34:17;95558.63;;;16.10;41.74
44079;BME280;29744;49.078;12.878;2022-11-15T21:39:18;95553.22;;;16.10;42.02
44079;BME280;29744;49.078;12.878;2022-11-15T21:44:18;95545.44;;;16.09;42.09
44079;BME280;29744;49.078;12.878;2022-11-15T21:49:18;95544.66;;;16.08;42.03
44079;BME280;29744;49.078;12.878;2022-11-15T21:54:20;95539.59;;;16.07;41.71
44079;BME280;29744;49.078;12.878;2022-11-15T21:59:20;95534.19;;;16.07;41.83
44079;BME280;29744;49.078;12.878;2022-11-15T22:04:20;95529.94;;;16.06;41.84
44079;BME280;29744;49.078;12.878;2022-11-15T22:09:23;95526.78;;;16.04;41.51
44079;BME280;29744;49.078;12.878;2022-11-15T22:14:23;95514.41;;;16.03;41.56
44079;BME280;29744;49.078;12.878;2022-11-15T22:19:23;95507.44;;;16.02;42.12
44079;BME280;29744;49.078;12.878;2022-11-15T22:24:23;95509.34;;;16.01;41.95
44079;BME280;29744;49.078;12.878;2022-11-15T22:29:24;95498.13;;;15.99;42.00
44079;BME280;29744;49.078;12.878;2022-11-15T22:34:24;95496.53;;;15.98;41.96
44079;BME280;29744;49.078;12.878;2022-11-15T22:39:24;95494.97;;;15.97;41.57
44079;BME280;29744;49.078;12.878;2022-11-15T22:44:24;95485.31;;;15.96;41.75
44079;BME280;29744;49.078;12.878;2022-11-15T22:49:25;95475.63;;;15.95;41.70
44079;BME280;29744;49.078;12.878;2022-11-15T22:54:25;95469.78;;;15.93;41.83
44079;BME280;29744;49.078;12.878;2022-11-15T22:59:25;95456.63;;;15.92;41.88
44079;BME280;29744;49.078;12.878;2022-11-15T23:04:25;95446.16;;;15.90;41.91
44079;BME280;29744;49.078;12.878;2022-11-15T23:09:26;95439.19;;;15.89;42.01
44079;BME280;29744;49.078;12.878;2022-11-15T23:14:26;95433.72;;;15.86;41.74
44079;BME280;29744;49.078;12.878;2022-11-15T23:19:26;95416.72;;;15.85;42.11
44079;BME280;29744;49.078;12.878;2022-11-15T23:24:27;95411.66;;;15.84;41.77
44079;BME280;29744;49.078;12.878;2022-11-15T23:29:28;95406.59;;;15.82;42.11
44079;BME280;29744;49.078;12.878;2022-11-15T23:34:30;95404.25;;;15.81;41.61
44079;BME280;29744;49.078;12.878;2022-11-15T23:39:30;95402.69;;;15.80;41.81
44079;BME280;29744;49.078;12.878;2022-11-15T23:44:31;95397.63;;;15.78;42.09
44079;BME280;29744;49.078;12.878;2022-11-15T23:49:31;95404.16;;;15.77;41.82
44079;BME280;29744;49.078;12.878;2022-11-15T23:54:32;95412.63;;;15.75;41.67
44079;BME280;29744;49.078;12.878;2022-11-15T23:59:32;95403.72;;;15.75;41.81
